Time;durP1;ratioP1;P1;durP2;ratioP2;P2;SDS_P1;SDS_P2;PMS_P1;PMS_P2;Temp;Humidity;BMP_temperature;BMP_pressure;BME280_temperature;BME280_humidity;BME280_pressure;Samples;Min_cycle;Max_cycle;Signal;HPM_P1;HPM_P2
2022/02/08 00:00:01;;;;;;;;;5.00;4.00;;;;;;;;4977694;28;45511;-69
2022/02/08 00:02:28;;;;;;;;;7.00;5.00;;;;;;;;4991172;28;45363;-69
2022/02/08 00:04:54;;;;;;;;;4.75;4.50;;;;;;;;4991965;28;45526;-69
2022/02/08 00:07:19;;;;;;;;;5.00;5.00;;;;;;;;4993924;28;46250;-69
2022/02/08 00:09:44;;;;;;;;;6.50;5.00;;;;;;;;4998050;28;45354;-69
2022/02/08 00:12:09;;;;;;;;;6.75;5.50;;;;;;;;4993382;28;45540;-69
2022/02/08 00:14:35;;;;;;;;;4.00;4.00;;;;;;;;4983111;28;45363;-69
2022/02/08 00:17:00;;;;;;;;;5.50;3.75;;;;;;;;4993226;28;46393;-69
2022/02/08 00:19:25;;;;;;;;;6.25;6.00;;;;;;;;4996909;28;45502;-69
2022/02/08 00:21:50;;;;;;;;;5.50;5.50;;;;;;;;4991748;28;45593;-69
2022/02/08 00:24:16;;;;;;;;;4.00;3.75;;;;;;;;4993347;28;45382;-69
2022/02/08 00:26:41;;;;;;;;;5.75;5.25;;;;;;;;4993756;28;45354;-69
2022/02/08 00:29:06;;;;;;;;;5.75;5.75;;;;;;;;4994174;28;45622;-69
2022/02/08 00:31:31;;;;;;;;;7.00;6.00;;;;;;;;4986264;28;45321;-70
2022/02/08 00:33:56;;;;;;;;;5.00;4.50;;;;;;;;4983816;28;45421;-69
2022/02/08 00:36:22;;;;;;;;;6.25;6.25;;;;;;;;5013200;28;45712;-69
2022/02/08 00:38:49;;;;;;;;;5.75;3.50;;;;;;;;5057223;28;45366;-69
2022/02/08 00:41:14;;;;;;;;;5.50;4.00;;;;;;;;5057816;28;45291;-69
2022/02/08 00:43:55;;;;;;;;;5.75;4.25;;;;;;;;5055347;28;45472;-70
2022/02/08 00:46:33;;;;;;;;;6.00;4.00;;;;;;;;5052317;28;47327;-69
2022/02/08 00:49:03;;;;;;;;;5.25;5.25;;;;;;;;5052652;28;45329;-70
2022/02/08 00:51:39;;;;;;;;;6.00;6.00;;;;;;;;5053814;28;45320;-69
2022/02/08 00:54:04;;;;;;;;;4.25;4.00;;;;;;;;5066174;28;45865;-69
2022/02/08 00:56:29;;;;;;;;;6.00;4.25;;;;;;;;5056279;28;47526;-69
2022/02/08 00:58:54;;;;;;;;;5.00;5.00;;;;;;;;5049596;28;45373;-69
2022/02/08 01:01:19;;;;;;;;;7.00;4.00;;;;;;;;5055010;28;45549;-69
2022/02/08 01:03:45;;;;;;;;;3.00;3.00;;;;;;;;5053248;28;45247;-68
2022/02/08 01:06:10;;;;;;;;;6.00;5.00;;;;;;;;5055402;28;47101;-69
2022/02/08 01:08:37;;;;;;;;;7.75;4.00;;;;;;;;5056553;28;45545;-69
2022/02/08 01:11:03;;;;;;;;;4.75;4.00;;;;;;;;5055781;28;45377;-70
2022/02/08 01:13:30;;;;;;;;;5.25;4.00;;;;;;;;5053697;28;45414;-70
2022/02/08 01:15:56;;;;;;;;;3.25;3.00;;;;;;;;5054808;28;46602;-69
2022/02/08 01:18:21;;;;;;;;;5.75;4.50;;;;;;;;5059972;28;45521;-70
2022/02/08 01:20:47;;;;;;;;;5.25;4.50;;;;;;;;5042414;28;45225;-69
2022/02/08 01:23:12;;;;;;;;;4.50;4.25;;;;;;;;5056832;28;45365;-69
2022/02/08 01:25:46;;;;;;;;;4.00;4.00;;;;;;;;5056127;28;46092;-69
2022/02/08 01:28:39;;;;;;;;;6.50;6.00;;;;;;;;5053259;28;45317;-68
2022/02/08 01:31:08;;;;;;;;;7.75;4.00;;;;;;;;5053527;28;45578;-70
2022/02/08 01:36:24;;;;;;;;;4.00;3.75;;;;;;;;5056047;28;45808;-69
2022/02/08 01:39:16;;;;;;;;;7.00;4.00;;;;;;;;5054845;28;45620;-71
2022/02/08 01:51:51;;;;;;;;;6.00;6.00;;;;;;;;5054512;28;45494;-69
2022/02/08 01:54:16;;;;;;;;;5.00;5.00;;;;;;;;5054655;28;45603;-68
2022/02/08 01:56:41;;;;;;;;;3.00;3.00;;;;;;;;5054758;28;45375;-69
2022/02/08 01:59:07;;;;;;;;;4.75;4.00;;;;;;;;5055142;28;45399;-69
2022/02/08 02:01:33;;;;;;;;;5.50;4.00;;;;;;;;5055330;28;45314;-69
2022/02/08 02:03:59;;;;;;;;;6.75;5.00;;;;;;;;5056647;28;45434;-68
2022/02/08 02:06:24;;;;;;;;;4.50;4.00;;;;;;;;5066055;28;45536;-69
2022/02/08 02:08:49;;;;;;;;;5.75;4.50;;;;;;;;5059687;28;45525;-69
2022/02/08 02:11:14;;;;;;;;;7.00;4.00;;;;;;;;5056377;28;45198;-68
2022/02/08 02:13:46;;;;;;;;;4.50;4.50;;;;;;;;5054030;28;45351;-69
2022/02/08 02:16:14;;;;;;;;;3.75;3.75;;;;;;;;5052405;28;45494;-69
2022/02/08 02:18:39;;;;;;;;;4.25;4.25;;;;;;;;5053772;28;45461;-69
2022/02/08 02:21:05;;;;;;;;;3.00;3.00;;;;;;;;5068909;28;45427;-69
2022/02/08 02:23:31;;;;;;;;;4.25;3.00;;;;;;;;5058509;28;45275;-69
2022/02/08 02:25:56;;;;;;;;;4.00;4.00;;;;;;;;5054262;28;45462;-69
2022/02/08 02:28:21;;;;;;;;;6.25;5.50;;;;;;;;5053986;28;45411;-69
2022/02/08 02:30:47;;;;;;;;;4.00;4.00;;;;;;;;5053645;28;45390;-69
2022/02/08 02:33:13;;;;;;;;;3.75;2.25;;;;;;;;5053161;28;45416;-68
2022/02/08 02:35:38;;;;;;;;;6.00;3.00;;;;;;;;5054985;27;46279;-69
2022/02/08 02:38:04;;;;;;;;;5.00;3.00;;;;;;;;5055453;28;45401;-69
2022/02/08 02:40:31;;;;;;;;;3.00;3.00;;;;;;;;5059251;28;45568;-69
2022/02/08 02:42:56;;;;;;;;;5.50;4.50;;;;;;;;5058308;28;45403;-69
2022/02/08 02:45:22;;;;;;;;;3.50;3.25;;;;;;;;5043082;28;46287;-68
2022/02/08 02:47:50;;;;;;;;;6.75;3.00;;;;;;;;5055100;28;45393;-69
2022/02/08 02:50:15;;;;;;;;;3.75;2.00;;;;;;;;5056200;28;45291;-69
2022/02/08 02:52:40;;;;;;;;;3.50;2.75;;;;;;;;5054789;28;45324;-69
2022/02/08 02:55:06;;;;;;;;;5.50;4.00;;;;;;;;5056864;28;47730;-69
2022/02/08 02:57:31;;;;;;;;;1.75;1.75;;;;;;;;5051006;28;45240;-69
2022/02/08 03:00:10;;;;;;;;;4.00;4.00;;;;;;;;5054423;28;45289;-69
2022/02/08 03:02:57;;;;;;;;;3.50;3.25;;;;;;;;5070760;28;45351;-69
2022/02/08 03:05:34;;;;;;;;;5.00;5.00;;;;;;;;5051739;28;45822;-69
2022/02/08 03:18:56;;;;;;;;;5.50;4.00;;;;;;;;5045420;28;45377;-69
2022/02/08 03:21:21;;;;;;;;;3.50;3.50;;;;;;;;5047281;28;45469;-69
2022/02/08 03:23:46;;;;;;;;;6.00;4.00;;;;;;;;5050255;28;49541;-69
2022/02/08 03:26:11;;;;;;;;;4.00;3.75;;;;;;;;5051384;28;47797;-69
2022/02/08 03:28:36;;;;;;;;;3.50;3.50;;;;;;;;5044372;28;45566;-69
2022/02/08 03:31:02;;;;;;;;;3.75;3.75;;;;;;;;5046320;28;45629;-69
2022/02/08 03:33:27;;;;;;;;;4.50;3.00;;;;;;;;5050658;28;45604;-69
2022/02/08 03:35:54;;;;;;;;;3.00;3.00;;;;;;;;5048626;28;45621;-69
2022/02/08 03:38:34;;;;;;;;;4.00;3.75;;;;;;;;5041146;28;45551;-69
2022/02/08 03:41:01;;;;;;;;;3.50;3.00;;;;;;;;5051148;28;45420;-69
2022/02/08 03:43:30;;;;;;;;;2.00;2.00;;;;;;;;5028683;28;45508;-69
2022/02/08 03:45:58;;;;;;;;;3.00;3.00;;;;;;;;5045662;28;45478;-69
2022/02/08 03:48:26;;;;;;;;;7.25;4.75;;;;;;;;5050824;28;45471;-69
2022/02/08 03:50:56;;;;;;;;;3.75;3.00;;;;;;;;5061756;28;45367;-70
2022/02/08 03:53:22;;;;;;;;;4.00;3.00;;;;;;;;5053828;28;45416;-69
2022/02/08 03:55:48;;;;;;;;;3.75;2.75;;;;;;;;5050280;28;46306;-69
2022/02/08 03:58:13;;;;;;;;;4.75;2.75;;;;;;;;5054325;28;45553;-69
2022/02/08 04:03:16;;;;;;;;;4.75;3.25;;;;;;;;5050206;28;45501;-69
2022/02/08 04:05:45;;;;;;;;;4.50;3.00;;;;;;;;5008093;28;1322556;-69
2022/02/08 04:08:13;;;;;;;;;2.00;2.00;;;;;;;;5054749;28;45383;-69
2022/02/08 04:10:40;;;;;;;;;3.00;2.00;;;;;;;;5058487;28;45448;-69
2022/02/08 04:13:17;;;;;;;;;3.75;2.75;;;;;;;;5059617;28;45427;-69
2022/02/08 04:15:56;;;;;;;;;3.50;3.50;;;;;;;;5053341;28;46163;-69
2022/02/08 04:33:01;;;;;;;;;2.00;2.00;;;;;;;;5035398;28;45478;-69
2022/02/08 04:50:08;;;;;;;;;2.00;2.00;;;;;;;;5053086;28;45541;-69
2022/02/08 04:52:34;;;;;;;;;3.25;3.25;;;;;;;;5038691;28;45443;-69
2022/02/08 05:44:39;;;;;;;;;1.00;1.00;;;;;;;;5055912;28;45492;-69
2022/02/08 05:47:04;;;;;;;;;4.00;2.00;;;;;;;;5054682;28;45418;-69
2022/02/08 05:49:41;;;;;;;;;2.00;2.00;;;;;;;;5058677;28;46255;-69
2022/02/08 05:52:53;;;;;;;;;2.00;1.00;;;;;;;;5060524;28;45414;-69
2022/02/08 05:54:55;;;;;;;;;2.25;1.00;;;;;;;;5050223;28;45427;-69
2022/02/08 05:57:21;;;;;;;;;1.00;1.00;;;;;;;;5053959;28;45416;-69
2022/02/08 05:59:48;;;;;;;;;1.00;1.00;;;;;;;;5053230;28;45453;-69
2022/02/08 06:02:13;;;;;;;;;5.25;1.75;;;;;;;;5056365;28;45416;-69
2022/02/08 06:04:39;;;;;;;;;2.00;2.00;;;;;;;;5052767;28;45309;-69
2022/02/08 06:07:05;;;;;;;;;1.00;1.00;;;;;;;;5051245;28;46084;-69
2022/02/08 06:09:30;;;;;;;;;1.00;1.00;;;;;;;;5054657;28;45589;-69
2022/02/08 06:11:55;;;;;;;;;2.25;2.25;;;;;;;;5052645;28;45510;-68
2022/02/08 06:14:25;;;;;;;;;3.75;2.00;;;;;;;;5056428;27;45406;-69
2022/02/08 06:16:50;;;;;;;;;2.00;2.00;;;;;;;;5052897;28;45509;-69
2022/02/08 06:19:15;;;;;;;;;2.00;2.00;;;;;;;;5052404;28;45539;-68
2022/02/08 06:21:41;;;;;;;;;3.50;2.00;;;;;;;;5067662;28;46302;-69
2022/02/08 06:24:07;;;;;;;;;1.00;1.00;;;;;;;;5054488;28;45272;-68
2022/02/08 06:26:32;;;;;;;;;2.00;2.00;;;;;;;;5051743;28;45320;-69
2022/02/08 06:29:07;;;;;;;;;1.00;1.00;;;;;;;;5054880;28;45523;-69
2022/02/08 06:31:32;;;;;;;;;1.00;1.00;;;;;;;;5055356;28;45270;-69
2022/02/08 06:33:57;;;;;;;;;2.25;2.25;;;;;;;;5052412;28;46325;-68
2022/02/08 06:36:22;;;;;;;;;1.00;1.00;;;;;;;;5053908;28;45417;-71
2022/02/08 06:38:48;;;;;;;;;3.00;2.00;;;;;;;;5053581;28;45537;-68
2022/02/08 06:41:13;;;;;;;;;1.00;1.00;;;;;;;;5053827;28;45464;-67
2022/02/08 06:43:38;;;;;;;;;0.00;0.00;;;;;;;;5050198;28;45493;-67
2022/02/08 06:46:03;;;;;;;;;1.00;1.00;;;;;;;;5053433;28;45395;-67
2022/02/08 06:48:29;;;;;;;;;1.25;1.25;;;;;;;;5051253;28;45494;-66
2022/02/08 06:50:55;;;;;;;;;2.00;2.00;;;;;;;;5061440;28;45625;-66
2022/02/08 06:53:20;;;;;;;;;1.50;1.50;;;;;;;;5066277;28;45497;-68
2022/02/08 06:55:45;;;;;;;;;1.00;1.00;;;;;;;;5061578;28;45358;-67
2022/02/08 06:58:12;;;;;;;;;2.00;2.00;;;;;;;;5060317;28;46463;-65
2022/02/08 07:00:39;;;;;;;;;1.25;1.25;;;;;;;;5061581;28;45789;-66
2022/02/08 07:03:06;;;;;;;;;2.25;2.00;;;;;;;;5058925;28;45516;-68
2022/02/08 07:05:32;;;;;;;;;1.75;1.00;;;;;;;;5050640;28;45410;-69
2022/02/08 07:07:57;;;;;;;;;1.50;1.50;;;;;;;;5048447;28;46044;-69
2022/02/08 07:10:23;;;;;;;;;2.00;0.75;;;;;;;;5048673;28;45415;-69
2022/02/08 07:12:50;;;;;;;;;1.25;1.00;;;;;;;;5048770;28;45472;-70
2022/02/08 07:15:15;;;;;;;;;0.00;0.00;;;;;;;;5038794;28;45299;-70
2022/02/08 07:17:41;;;;;;;;;1.00;1.00;;;;;;;;5057053;28;46413;-71
2022/02/08 07:20:07;;;;;;;;;2.25;2.25;;;;;;;;5054980;28;45383;-70
2022/02/08 07:22:32;;;;;;;;;1.25;1.25;;;;;;;;5053596;28;45426;-69
2022/02/08 07:24:58;;;;;;;;;1.00;0.25;;;;;;;;5053121;28;45333;-70
2022/02/08 07:27:24;;;;;;;;;1.75;1.75;;;;;;;;5051546;28;45602;-70
2022/02/08 07:29:52;;;;;;;;;2.00;2.00;;;;;;;;5051627;28;45295;-70
2022/02/08 07:32:18;;;;;;;;;1.00;1.00;;;;;;;;5054513;28;45351;-70
2022/02/08 07:34:48;;;;;;;;;1.25;1.25;;;;;;;;5054066;28;45462;-70
2022/02/08 07:37:20;;;;;;;;;2.00;2.00;;;;;;;;5052956;28;45604;-70
2022/02/08 07:39:54;;;;;;;;;1.75;1.75;;;;;;;;5052402;28;45435;-70
2022/02/08 07:42:20;;;;;;;;;2.50;1.00;;;;;;;;5040957;28;50850;-70
2022/02/08 07:44:46;;;;;;;;;1.00;1.00;;;;;;;;5053213;28;45355;-70
2022/02/08 07:47:11;;;;;;;;;1.00;1.00;;;;;;;;5053582;28;47072;-70
2022/02/08 07:49:40;;;;;;;;;1.00;1.00;;;;;;;;5051687;28;45366;-70
2022/02/08 07:52:06;;;;;;;;;1.00;1.00;;;;;;;;5054358;28;45593;-70
2022/02/08 07:54:32;;;;;;;;;1.00;1.00;;;;;;;;5051461;28;45510;-70
2022/02/08 07:56:57;;;;;;;;;2.00;1.50;;;;;;;;5052636;28;45347;-70
2022/02/08 07:59:22;;;;;;;;;1.00;1.00;;;;;;;;5055244;28;45448;-70
2022/02/08 08:01:47;;;;;;;;;1.00;1.00;;;;;;;;5051541;28;45504;-69
2022/02/08 08:04:13;;;;;;;;;0.75;0.75;;;;;;;;5050159;28;45485;-70
2022/02/08 08:06:38;;;;;;;;;0.50;0.50;;;;;;;;5052332;28;45497;-70
2022/02/08 08:09:04;;;;;;;;;1.50;1.00;;;;;;;;5052547;28;45409;-70
2022/02/08 08:11:36;;;;;;;;;1.00;0.00;;;;;;;;5067157;28;45366;-70
2022/02/08 08:14:04;;;;;;;;;2.00;1.00;;;;;;;;5063645;28;45843;-70
2022/02/08 08:18:59;;;;;;;;;1.25;1.25;;;;;;;;5050458;28;45429;-70
2022/02/08 08:21:24;;;;;;;;;2.00;1.00;;;;;;;;5051391;28;45525;-70
2022/02/08 08:23:50;;;;;;;;;1.50;1.00;;;;;;;;5055967;28;45339;-69
2022/02/08 08:26:15;;;;;;;;;2.75;1.75;;;;;;;;5058091;28;46141;-70
2022/02/08 08:28:40;;;;;;;;;4.00;1.25;;;;;;;;5054573;28;45330;-69
2022/02/08 08:31:06;;;;;;;;;0.50;0.50;;;;;;;;5056253;28;45413;-70
2022/02/08 08:33:31;;;;;;;;;1.00;1.00;;;;;;;;5054076;28;45434;-70
2022/02/08 08:35:56;;;;;;;;;1.00;1.00;;;;;;;;5057256;28;46365;-70
2022/02/08 08:38:23;;;;;;;;;1.67;1.67;;;;;;;;5057850;28;45466;-70
2022/02/08 08:51:31;;;;;;;;;1.75;1.00;;;;;;;;5041672;28;45344;-70
2022/02/08 08:53:56;;;;;;;;;1.25;1.25;;;;;;;;5049989;28;45326;-70
2022/02/08 08:56:21;;;;;;;;;1.00;1.00;;;;;;;;5052755;28;47342;-70
2022/02/08 08:58:47;;;;;;;;;1.25;1.00;;;;;;;;5053271;28;45466;-70
2022/02/08 09:01:12;;;;;;;;;2.00;2.00;;;;;;;;5057409;28;45340;-70
2022/02/08 09:03:37;;;;;;;;;1.00;1.00;;;;;;;;5065231;28;45426;-70
2022/02/08 09:06:02;;;;;;;;;1.25;1.25;;;;;;;;5055813;28;45474;-70
2022/02/08 09:08:31;;;;;;;;;0.25;0.25;;;;;;;;5057098;28;45398;-69
2022/02/08 09:11:05;;;;;;;;;0.25;0.00;;;;;;;;5055576;28;45382;-70
2022/02/08 09:13:38;;;;;;;;;3.00;1.75;;;;;;;;5055313;28;45350;-70
2022/02/08 09:16:18;;;;;;;;;2.00;2.00;;;;;;;;5053676;28;46429;-70
2022/02/08 09:28:56;;;;;;;;;1.50;1.00;;;;;;;;5053847;28;45300;-70
2022/02/08 09:31:22;;;;;;;;;0.00;0.00;;;;;;;;5055654;28;45335;-70
2022/02/08 09:33:48;;;;;;;;;2.50;0.75;;;;;;;;5053872;28;45343;-70
2022/02/08 09:36:13;;;;;;;;;0.75;0.75;;;;;;;;5056478;28;46306;-70
2022/02/08 09:38:39;;;;;;;;;1.25;1.25;;;;;;;;5055721;28;45701;-70
2022/02/08 09:41:04;;;;;;;;;0.00;0.00;;;;;;;;5056766;28;45469;-70
2022/02/08 09:43:30;;;;;;;;;2.00;2.00;;;;;;;;5056184;28;45415;-70
2022/02/08 09:45:58;;;;;;;;;0.00;0.00;;;;;;;;5059873;28;45668;-70
2022/02/08 09:48:35;;;;;;;;;0.50;0.50;;;;;;;;5053531;28;45829;-69
2022/02/08 09:51:00;;;;;;;;;1.00;1.00;;;;;;;;5063998;28;45537;-70
2022/02/08 09:53:34;;;;;;;;;1.00;1.00;;;;;;;;5056564;28;45422;-69
2022/02/08 09:56:00;;;;;;;;;2.00;2.00;;;;;;;;5056646;28;46253;-69
2022/02/08 09:58:25;;;;;;;;;0.75;0.75;;;;;;;;5053705;28;45408;-70
2022/02/08 10:01:01;;;;;;;;;0.25;0.25;;;;;;;;5052857;28;45513;-70
2022/02/08 10:03:26;;;;;;;;;1.00;1.00;;;;;;;;5053410;28;45540;-70
2022/02/08 10:05:53;;;;;;;;;0.00;0.00;;;;;;;;5057552;27;45456;-70
2022/02/08 10:08:20;;;;;;;;;0.75;0.75;;;;;;;;5056001;28;45367;-69
2022/02/08 10:10:46;;;;;;;;;1.00;1.00;;;;;;;;5054695;28;45438;-70
2022/02/08 10:24:09;;;;;;;;;0.75;0.75;;;;;;;;5040351;28;45568;-69
2022/02/08 10:29:15;;;;;;;;;0.75;0.75;;;;;;;;5064800;28;45372;-70
2022/02/08 10:39:44;;;;;;;;;1.00;1.00;;;;;;;;5052686;28;45415;-70
2022/02/08 10:42:16;;;;;;;;;0.00;0.00;;;;;;;;5050492;28;45416;-70
2022/02/08 10:44:41;;;;;;;;;1.00;1.00;;;;;;;;5053350;28;45166;-70
2022/02/08 10:47:06;;;;;;;;;1.00;0.75;;;;;;;;5053898;28;45518;-70
2022/02/08 10:49:32;;;;;;;;;0.00;0.00;;;;;;;;5057433;28;45411;-70
2022/02/08 10:51:59;;;;;;;;;2.00;2.00;;;;;;;;5060873;28;45315;-69
2022/02/08 10:54:33;;;;;;;;;2.50;1.00;;;;;;;;5058158;28;45493;-70
2022/02/08 10:57:08;;;;;;;;;2.00;0.00;;;;;;;;5036660;28;46372;-69
2022/02/08 10:59:39;;;;;;;;;1.00;1.00;;;;;;;;5054597;28;45347;-70
2022/02/08 11:02:11;;;;;;;;;1.00;1.00;;;;;;;;5062694;28;45448;-70
2022/02/08 11:18:19;;;;;;;;;1.75;0.00;;;;;;;;5052145;28;46244;-70
2022/02/08 11:20:56;;;;;;;;;0.67;0.67;;;;;;;;5051133;28;45535;-70
2022/02/08 11:23:32;;;;;;;;;1.00;1.00;;;;;;;;5050902;28;45319;-70
2022/02/08 11:25:58;;;;;;;;;0.00;0.00;;;;;;;;5054600;28;45633;-70
2022/02/08 11:29:06;;;;;;;;;0.00;0.00;;;;;;;;5051767;28;45422;-70
2022/02/08 11:34:08;;;;;;;;;1.00;1.00;;;;;;;;5054397;28;45546;-70
2022/02/08 11:47:29;;;;;;;;;0.75;0.75;;;;;;;;5055318;28;45312;-70
2022/02/08 11:55:47;;;;;;;;;2.00;0.50;;;;;;;;5050881;28;45607;-70
2022/02/08 11:58:27;;;;;;;;;0.00;0.00;;;;;;;;5054153;28;45340;-70
2022/02/08 12:01:02;;;;;;;;;0.50;0.50;;;;;;;;5054657;28;47303;-70
2022/02/08 12:03:55;;;;;;;;;0.00;0.00;;;;;;;;5054999;28;45461;-70
2022/02/08 12:08:52;;;;;;;;;0.75;0.75;;;;;;;;5056267;28;45400;-70
2022/02/08 12:11:36;;;;;;;;;0.00;0.00;;;;;;;;5057045;28;45721;-70
2022/02/08 12:50:02;;;;;;;;;1.00;1.00;;;;;;;;4997726;28;45398;-70
2022/02/08 12:57:38;;;;;;;;;0.00;0.00;;;;;;;;5013607;28;45775;-70
2022/02/08 13:00:22;;;;;;;;;0.75;0.75;;;;;;;;4997945;28;45288;-69
2022/02/08 14:13:44;;;;;;;;;1.00;0.00;;;;;;;;5052804;28;45416;-70
2022/02/08 14:16:30;;;;;;;;;0.25;0.25;;;;;;;;5055274;28;45743;-69
2022/02/08 14:21:52;;;;;;;;;0.50;0.50;;;;;;;;5052469;28;45970;-71
2022/02/08 14:24:32;;;;;;;;;0.00;0.00;;;;;;;;5053164;28;45538;-70
2022/02/08 14:29:47;;;;;;;;;1.00;0.00;;;;;;;;5052252;28;45307;-70
2022/02/08 14:32:28;;;;;;;;;2.00;1.00;;;;;;;;5056172;28;46605;-69
2022/02/08 15:05:44;;;;;;;;;1.00;1.00;;;;;;;;5057271;28;45296;-70
2022/02/08 15:08:12;;;;;;;;;0.00;0.00;;;;;;;;5051237;28;45801;-70
2022/02/08 15:10:42;;;;;;;;;1.00;1.00;;;;;;;;5053589;28;45450;-70
2022/02/08 15:13:08;;;;;;;;;0.00;0.00;;;;;;;;5053269;28;45442;-70
2022/02/08 15:18:17;;;;;;;;;0.00;0.00;;;;;;;;5052712;28;45495;-70
2022/02/08 15:20:42;;;;;;;;;1.25;0.00;;;;;;;;5067498;28;45367;-70
2022/02/08 15:23:10;;;;;;;;;0.25;0.25;;;;;;;;5060023;28;45522;-70
2022/02/08 15:25:36;;;;;;;;;0.00;0.00;;;;;;;;5055492;28;46200;-71
2022/02/08 15:28:03;;;;;;;;;0.00;0.00;;;;;;;;5051540;28;45364;-70
2022/02/08 15:30:30;;;;;;;;;0.00;0.00;;;;;;;;5053812;28;45538;-70
2022/02/08 15:32:55;;;;;;;;;2.00;0.00;;;;;;;;5051189;28;45373;-70
2022/02/08 15:35:21;;;;;;;;;1.00;1.00;;;;;;;;5055175;28;46109;-70
2022/02/08 15:37:46;;;;;;;;;2.00;1.00;;;;;;;;5052947;28;45484;-70
2022/02/08 15:40:14;;;;;;;;;1.00;1.00;;;;;;;;5051394;27;45413;-70
2022/02/08 15:42:40;;;;;;;;;0.00;0.00;;;;;;;;5053051;28;45422;-70
2022/02/08 15:45:22;;;;;;;;;1.00;1.00;;;;;;;;5050729;28;45466;-70
2022/02/08 15:47:47;;;;;;;;;0.00;0.00;;;;;;;;5052368;28;45667;-70
2022/02/08 15:50:20;;;;;;;;;1.00;1.00;;;;;;;;5053470;28;45447;-70
2022/02/08 15:55:29;;;;;;;;;0.00;0.00;;;;;;;;5045787;28;45396;-70
2022/02/08 16:01:01;;;;;;;;;0.33;0.00;;;;;;;;5053851;28;45528;-70
2022/02/08 16:08:47;;;;;;;;;0.00;0.00;;;;;;;;5058413;28;45477;-70
2022/02/08 16:13:48;;;;;;;;;0.00;0.00;;;;;;;;5055809;28;45340;-70
2022/02/08 16:16:23;;;;;;;;;0.33;0.33;;;;;;;;5053138;28;45367;-71
2022/02/08 16:19:06;;;;;;;;;2.00;0.00;;;;;;;;5058263;28;45404;-71
2022/02/08 16:24:31;;;;;;;;;0.00;0.00;;;;;;;;5051412;28;45332;-70
2022/02/08 16:27:14;;;;;;;;;0.00;0.00;;;;;;;;5044615;28;46366;-71
2022/02/08 16:59:31;;;;;;;;;1.00;1.00;;;;;;;;5056036;28;45781;-71
2022/02/08 17:01:59;;;;;;;;;0.75;0.75;;;;;;;;5062751;28;45474;-70
2022/02/08 17:04:24;;;;;;;;;0.00;0.00;;;;;;;;5063104;27;45542;-70
2022/02/08 17:06:50;;;;;;;;;1.75;0.00;;;;;;;;5055027;28;45832;-70
2022/02/08 17:09:21;;;;;;;;;0.00;0.00;;;;;;;;5055004;28;46274;-70
2022/02/08 17:11:59;;;;;;;;;0.00;0.00;;;;;;;;5055692;28;45595;-70
2022/02/08 17:17:46;;;;;;;;;0.25;0.25;;;;;;;;5053542;28;45622;-70
2022/02/08 17:49:38;;;;;;;;;0.25;0.25;;;;;;;;5033236;28;45416;-70
2022/02/08 17:52:04;;;;;;;;;1.00;1.00;;;;;;;;5033667;28;46546;-70
2022/02/08 17:54:29;;;;;;;;;0.00;0.00;;;;;;;;5032910;28;45475;-70
2022/02/08 17:56:56;;;;;;;;;0.75;0.75;;;;;;;;5033315;28;45408;-71
2022/02/08 17:59:24;;;;;;;;;0.50;0.50;;;;;;;;5034106;28;45222;-70
2022/02/08 18:01:50;;;;;;;;;1.00;1.00;;;;;;;;5037842;28;45447;-70
2022/02/08 18:04:15;;;;;;;;;1.00;1.00;;;;;;;;5054713;28;45457;-70
2022/02/08 18:06:40;;;;;;;;;1.00;1.00;;;;;;;;5052002;28;45494;-70
2022/02/08 18:09:06;;;;;;;;;4.00;1.00;;;;;;;;5061973;28;45364;-70
2022/02/08 18:11:37;;;;;;;;;2.25;0.00;;;;;;;;5055824;28;46627;-70
2022/02/08 18:14:02;;;;;;;;;2.00;2.00;;;;;;;;5055952;28;45254;-70
2022/02/08 18:16:33;;;;;;;;;2.00;1.00;;;;;;;;5053199;28;45430;-70
2022/02/08 18:19:02;;;;;;;;;0.00;0.00;;;;;;;;5057054;28;45550;-68
2022/02/08 18:21:33;;;;;;;;;0.25;0.25;;;;;;;;5054194;28;46995;-72
2022/02/08 18:24:26;;;;;;;;;2.00;2.00;;;;;;;;5044566;28;45561;-71
2022/02/08 18:54:08;;;;;;;;;1.00;1.00;;;;;;;;5052335;28;45560;-72
2022/02/08 19:07:25;;;;;;;;;1.00;1.00;;;;;;;;5053618;28;45292;-71
2022/02/08 19:12:38;;;;;;;;;1.00;0.50;;;;;;;;5051937;28;45585;-72
2022/02/08 19:15:42;;;;;;;;;1.00;0.25;;;;;;;;5051613;28;46637;-72
2022/02/08 19:20:36;;;;;;;;;3.00;1.25;;;;;;;;5050908;28;45435;-72
2022/02/08 19:23:01;;;;;;;;;2.00;2.00;;;;;;;;5046353;28;45536;-70
2022/02/08 19:25:26;;;;;;;;;6.00;4.25;;;;;;;;5048641;28;45280;-72
2022/02/08 19:27:54;;;;;;;;;10.25;5.75;;;;;;;;5052141;28;45323;-72
2022/02/08 19:30:19;;;;;;;;;7.50;6.75;;;;;;;;5066948;28;48404;-73
2022/02/08 19:32:45;;;;;;;;;10.25;6.25;;;;;;;;5053279;28;45362;-73
2022/02/08 19:35:11;;;;;;;;;11.75;10.00;;;;;;;;5055266;28;46528;-72
2022/02/08 19:37:38;;;;;;;;;10.50;8.75;;;;;;;;5052534;28;45434;-72
2022/02/08 19:40:03;;;;;;;;;12.50;11.25;;;;;;;;5045920;28;45501;-72
2022/02/08 19:42:29;;;;;;;;;13.50;12.50;;;;;;;;5035826;28;45519;-72
2022/02/08 19:44:56;;;;;;;;;18.00;14.75;;;;;;;;5040295;28;46672;-72
2022/02/08 19:47:22;;;;;;;;;45.75;31.75;;;;;;;;5048466;28;45338;-72
2022/02/08 19:49:47;;;;;;;;;65.25;49.50;;;;;;;;5049066;28;45244;-68
2022/02/08 19:52:12;;;;;;;;;61.50;47.25;;;;;;;;5047271;28;45560;-71
2022/02/08 19:54:52;;;;;;;;;61.25;46.50;;;;;;;;5050256;28;45415;-70
2022/02/08 19:57:23;;;;;;;;;62.75;47.25;;;;;;;;5052301;28;45537;-71
2022/02/08 19:59:50;;;;;;;;;62.25;48.75;;;;;;;;5043956;28;45367;-72
2022/02/08 20:02:17;;;;;;;;;50.25;40.75;;;;;;;;5053585;28;45530;-71
2022/02/08 20:04:47;;;;;;;;;54.50;40.25;;;;;;;;5052760;28;45713;-71
2022/02/08 20:07:12;;;;;;;;;48.75;37.25;;;;;;;;5051959;28;45509;-71
2022/02/08 20:09:37;;;;;;;;;52.50;41.50;;;;;;;;5041263;28;45456;-71
2022/02/08 20:12:04;;;;;;;;;68.00;52.50;;;;;;;;5051961;28;45366;-72
2022/02/08 20:14:29;;;;;;;;;62.75;47.25;;;;;;;;5054712;27;46308;-71
2022/02/08 20:16:55;;;;;;;;;65.25;49.25;;;;;;;;5052450;28;45537;-72
2022/02/08 20:19:21;;;;;;;;;59.75;46.50;;;;;;;;5054550;28;45505;-73
2022/02/08 20:21:47;;;;;;;;;57.25;47.00;;;;;;;;5053410;28;45458;-72
2022/02/08 20:24:15;;;;;;;;;62.50;46.00;;;;;;;;5053728;28;45849;-72
2022/02/08 20:29:12;;;;;;;;;55.50;42.25;;;;;;;;5055450;28;45426;-72
2022/02/08 20:31:38;;;;;;;;;44.75;35.00;;;;;;;;5055535;28;45527;-72
2022/02/08 20:34:03;;;;;;;;;50.00;37.50;;;;;;;;5056816;28;46283;-72
2022/02/08 20:36:28;;;;;;;;;43.25;35.25;;;;;;;;5053295;28;45449;-72
2022/02/08 20:38:53;;;;;;;;;31.50;29.00;;;;;;;;5053183;28;45401;-71
2022/02/08 20:41:20;;;;;;;;;30.25;28.50;;;;;;;;5046586;28;45326;-72
2022/02/08 20:43:45;;;;;;;;;27.25;26.25;;;;;;;;5055530;28;46551;-71
2022/02/08 20:46:12;;;;;;;;;30.75;23.50;;;;;;;;5051131;28;45477;-68
2022/02/08 20:48:38;;;;;;;;;44.00;35.25;;;;;;;;5051418;28;45443;-70
2022/02/08 20:51:03;;;;;;;;;50.25;41.25;;;;;;;;5051187;28;45385;-71
2022/02/08 20:53:53;;;;;;;;;59.00;46.75;;;;;;;;5056972;28;45493;-72
2022/02/08 21:01:15;;;;;;;;;53.00;44.00;;;;;;;;5055525;28;45396;-70
2022/02/08 21:03:52;;;;;;;;;56.75;44.00;;;;;;;;5053277;28;46459;-70
2022/02/08 21:06:21;;;;;;;;;52.25;43.00;;;;;;;;5054784;28;45779;-71
2022/02/08 21:08:47;;;;;;;;;51.00;41.00;;;;;;;;5054671;28;45482;-71
2022/02/08 21:11:13;;;;;;;;;48.00;38.00;;;;;;;;5048025;28;45606;-72
2022/02/08 21:16:06;;;;;;;;;49.00;37.75;;;;;;;;5043825;27;45477;-71
2022/02/08 21:18:31;;;;;;;;;44.00;35.50;;;;;;;;5048652;28;45422;-71
2022/02/08 21:20:59;;;;;;;;;33.50;28.50;;;;;;;;5054075;28;45323;-72
2022/02/08 21:23:24;;;;;;;;;42.75;34.75;;;;;;;;5050475;28;45560;-70
2022/02/08 21:25:50;;;;;;;;;34.50;32.00;;;;;;;;5052250;28;45383;-70
2022/02/08 21:28:25;;;;;;;;;42.75;34.25;;;;;;;;5057558;28;45499;-71
2022/02/08 21:49:39;;;;;;;;;33.25;30.00;;;;;;;;5039760;28;45574;-72
2022/02/08 21:54:38;;;;;;;;;35.00;29.75;;;;;;;;5043580;28;45505;-72
2022/02/08 21:57:06;;;;;;;;;34.00;27.75;;;;;;;;5038626;28;45435;-72
2022/02/08 21:59:31;;;;;;;;;31.25;27.50;;;;;;;;5055558;28;45441;-73
2022/02/08 22:01:56;;;;;;;;;29.75;28.75;;;;;;;;5046476;28;45406;-73
2022/02/08 22:04:22;;;;;;;;;31.75;29.00;;;;;;;;5039314;28;46003;-71
2022/02/08 22:06:49;;;;;;;;;26.25;24.50;;;;;;;;5041357;28;45604;-72
2022/02/08 22:09:17;;;;;;;;;29.25;28.25;;;;;;;;5037272;28;45404;-71
2022/02/08 22:20:07;;;;;;;;;27.50;26.25;;;;;;;;5038524;28;45535;-72
2022/02/08 22:22:27;;;;;;;;;27.00;26.75;;;;;;;;5043021;28;45273;-72
2022/02/08 22:25:28;;;;;;;;;24.00;24.00;;;;;;;;5056748;28;45446;-72
2022/02/08 22:27:54;;;;;;;;;27.75;23.00;;;;;;;;5051447;28;45448;-73
2022/02/08 22:30:45;;;;;;;;;24.25;23.75;;;;;;;;5053863;28;45612;-73
2022/02/08 22:33:05;;;;;;;;;24.25;22.50;;;;;;;;5048778;28;45476;-73
2022/02/08 22:35:37;;;;;;;;;23.00;22.00;;;;;;;;5055458;28;46356;-73
2022/02/08 22:38:29;;;;;;;;;26.00;22.00;;;;;;;;5054514;28;45626;-72
2022/02/08 22:40:57;;;;;;;;;24.25;23.25;;;;;;;;5051730;28;45530;-74
2022/02/08 22:43:32;;;;;;;;;32.00;25.50;;;;;;;;5049969;28;45275;-74
2022/02/08 22:45:57;;;;;;;;;17.75;16.75;;;;;;;;5053196;28;45703;-74
2022/02/08 22:48:23;;;;;;;;;24.00;23.50;;;;;;;;5052682;28;45545;-74
2022/02/08 22:50:48;;;;;;;;;11.50;8.75;;;;;;;;5053784;28;45536;-73
2022/02/08 22:53:14;;;;;;;;;27.50;24.00;;;;;;;;5055020;28;45729;-74
2022/02/08 22:55:39;;;;;;;;;25.75;20.25;;;;;;;;5052797;28;45574;-73
2022/02/08 22:58:07;;;;;;;;;26.50;23.25;;;;;;;;5052651;28;45630;-73
2022/02/08 23:00:35;;;;;;;;;26.25;22.00;;;;;;;;5055647;28;45799;-73
2022/02/08 23:03:00;;;;;;;;;22.25;18.50;;;;;;;;5051335;28;45356;-73